Wetterdaten: Woche 23.11.09 - 29.11.09 (KW48)
Datum Zeit Temperatur Luftfeuchte Luftdruck Niederschlag Wind Richtung Sonnenschein Solar Taupunkt Windchill Windben
23.11.2009 00:00 9.2 C 83 % 1017.2 hPa 0.0 l/m 1.2 km/h (1 Bft) W-SW 0.00 h 0 W/m 6.5 C 9.2 C 2.2 km/h (1 Bft)
23.11.2009 01:00 9.3 C 79 % 1017.2 hPa 0.0 l/m 7.1 km/h (2 Bft) W 0.00 h 0 W/m 5.9 C 8.5 C 11.4 km/h (2 Bft)
23.11.2009 02:00 9.5 C 75 % 1017.5 hPa 0.8 l/m 12.9 km/h (3 Bft) W 0.00 h 0 W/m 5.3 C 7.9 C 20.3 km/h (4 Bft)
23.11.2009 03:00 7.5 C 85 % 1018.0 hPa 0.0 l/m 4.7 km/h (1 Bft) W-NW 0.00 h 0 W/m 5.2 C 7.0 C 7.7 km/h (2 Bft)
23.11.2009 04:00 7.0 C 86 % 1018.3 hPa 0.0 l/m 2.6 km/h (1 Bft) SW 0.00 h 0 W/m 4.8 C 6.8 C 5.1 km/h (1 Bft)
23.11.2009 05:00 8.3 C 73 % 1018.5 hPa 0.0 l/m 6.7 km/h (2 Bft) SW 0.00 h 0 W/m 3.7 C 7.4 C 10.8 km/h (2 Bft)
23.11.2009 06:00 8.6 C 74 % 1018.5 hPa 0.0 l/m 10.0 km/h (2 Bft) SW 0.00 h 0 W/m 4.3 C 7.0 C 16.1 km/h (3 Bft)
23.11.2009 07:00 9.0 C 71 % 1018.3 hPa 0.0 l/m 8.8 km/h (2 Bft) SW 0.00 h 7 W/m 4.1 C 7.7 C 14.5 km/h (3 Bft)
23.11.2009 08:00 9.6 C 69 % 1018.4 hPa 0.0 l/m 9.8 km/h (2 Bft) SW 0.13 h 38 W/m 4.3 C 8.7 C 15.8 km/h (3 Bft)
23.11.2009 09:00 11.5 C 61 % 1018.3 hPa 0.0 l/m 19.6 km/h (3 Bft) W-SW 0.03 h 89 W/m 4.1 C 11.5 C 29.3 km/h (5 Bft)
23.11.2009 10:00 11.8 C 61 % 1018.7 hPa 0.0 l/m 16.5 km/h (3 Bft) W 0.02 h 81 W/m 4.6 C 11.8 C 25.2 km/h (4 Bft)
23.11.2009 11:00 11.3 C 65 % 1018.6 hPa 0.0 l/m 12.2 km/h (2 Bft) W 0.05 h 129 W/m 5.1 C 11.3 C 18.9 km/h (3 Bft)
23.11.2009 12:00 12.6 C 58 % 1017.6 hPa 0.0 l/m 15.8 km/h (3 Bft) W 0.27 h 175 W/m 4.6 C 12.6 C 24.1 km/h (4 Bft)
23.11.2009 13:00 13.3 C 56 % 1016.6 hPa 0.0 l/m 14.9 km/h (3 Bft) W-SW 0.17 h 138 W/m 4.6 C 13.3 C 23.0 km/h (4 Bft)
23.11.2009 14:00 12.4 C 61 % 1016.8 hPa 0.2 l/m 16.1 km/h (3 Bft) W 0.00 h 44 W/m 5.1 C 12.4 C 23.7 km/h (4 Bft)
23.11.2009 15:00 12.4 C 59 % 1016.5 hPa 0.0 l/m 15.2 km/h (3 Bft) W 0.00 h 17 W/m 4.6 C 12.4 C 23.3 km/h (4 Bft)
23.11.2009 16:00 12.1 C 63 % 1016.2 hPa 0.0 l/m 11.9 km/h (2 Bft) SW 0.00 h 5 W/m 5.1 C 12.1 C 19.4 km/h (3 Bft)
23.11.2009 17:00 11.7 C 67 % 1016.0 hPa 0.0 l/m 12.6 km/h (3 Bft) SW 0.00 h 0 W/m 5.7 C 11.7 C 20.2 km/h (4 Bft)
23.11.2009 18:00 11.9 C 66 % 1015.6 hPa 0.0 l/m 13.9 km/h (3 Bft) SW 0.00 h 0 W/m 5.7 C 11.9 C 22.3 km/h (4 Bft)
23.11.2009 19:00 12.3 C 64 % 1015.4 hPa 0.0 l/m 22.0 km/h (4 Bft) W-SW 0.00 h 0 W/m 5.6 C 12.3 C 33.9 km/h (5 Bft)
23.11.2009 20:00 12.2 C 65 % 1015.0 hPa 0.0 l/m 16.0 km/h (3 Bft) SW 0.00 h 0 W/m 5.8 C 12.2 C 25.1 km/h (4 Bft)
23.11.2009 21:00 11.4 C 73 % 1015.1 hPa 1.0 l/m 17.0 km/h (3 Bft) W-SW 0.00 h 0 W/m 6.7 C 11.4 C 26.3 km/h (4 Bft)
23.11.2009 22:00 10.1 C 84 % 1015.4 hPa 2.2 l/m 11.0 km/h (2 Bft) W-SW 0.00 h 0 W/m 7.5 C 9.6 C 16.7 km/h (3 Bft)
23.11.2009 23:00 9.5 C 90 % 1015.9 hPa 2.4 l/m 4.7 km/h (1 Bft) SW 0.00 h 0 W/m 7.8 C 9.1 C 7.4 km/h (2 Bft)
24.11.2009 00:00 9.4 C 89 % 1015.6 hPa 1.0 l/m 8.9 km/h (2 Bft) SW 0.00 h 0 W/m 7.7 C 8.1 C 13.6 km/h (3 Bft)
24.11.2009 01:00 9.2 C 90 % 1015.3 hPa 4.4 l/m 7.5 km/h (2 Bft) W-SW 0.00 h 0 W/m 7.6 C 8.3 C 11.8 km/h (2 Bft)
24.11.2009 02:00 9.1 C 92 % 1015.6 hPa 2.8 l/m 4.4 km/h (1 Bft) SW 0.00 h 0 W/m 7.8 C 8.8 C 7.4 km/h (2 Bft)
24.11.2009 03:00 9.0 C 92 % 1015.9 hPa 0.4 l/m 4.8 km/h (1 Bft) S-SW 0.00 h 0 W/m 7.8 C 8.7 C 8.1 km/h (2 Bft)
24.11.2009 04:00 9.4 C 92 % 1016.1 hPa 1.2 l/m 6.1 km/h (2 Bft) S-SW 0.00 h 0 W/m 8.2 C 8.8 C 10.2 km/h (2 Bft)
24.11.2009 05:00 9.3 C 93 % 1016.4 hPa 3.2 l/m 5.2 km/h (1 Bft) SW 0.00 h 0 W/m 8.3 C 8.9 C 9.0 km/h (2 Bft)
24.11.2009 06:00 9.3 C 95 % 1016.6 hPa 1.0 l/m 6.6 km/h (2 Bft) S-SW 0.00 h 0 W/m 8.5 C 8.6 C 11.4 km/h (2 Bft)
24.11.2009 07:00 9.5 C 95 % 1017.0 hPa 3.2 l/m 7.0 km/h (2 Bft) S-SW 0.00 h 0 W/m 8.7 C 8.7 C 12.4 km/h (3 Bft)
24.11.2009 08:00 9.7 C 95 % 1017.8 hPa 0.4 l/m 6.6 km/h (2 Bft) S-SW 0.00 h 10 W/m 8.9 C 9.0 C 11.0 km/h (2 Bft)
24.11.2009 09:00 9.9 C 95 % 1018.6 hPa 0.2 l/m 8.6 km/h (2 Bft) S-SW 0.00 h 22 W/m 9.2 C 9.1 C 14.5 km/h (3 Bft)
24.11.2009 10:00 10.2 C 93 % 1019.3 hPa 0.6 l/m 9.7 km/h (2 Bft) SW 0.00 h 43 W/m 9.1 C 10.2 C 16.7 km/h (3 Bft)
24.11.2009 11:00 10.4 C 92 % 1020.0 hPa 1.8 l/m 9.1 km/h (2 Bft) S-SW 0.00 h 36 W/m 9.1 C 10.4 C 15.6 km/h (3 Bft)
24.11.2009 12:00 10.4 C 93 % 1020.5 hPa 2.2 l/m 5.9 km/h (2 Bft) SW 0.00 h 35 W/m 9.3 C 10.4 C 9.5 km/h (2 Bft)
24.11.2009 13:00 10.5 C 95 % 1020.4 hPa 1.2 l/m 6.9 km/h (2 Bft) SW 0.00 h 59 W/m 9.7 C 10.5 C 10.4 km/h (2 Bft)
24.11.2009 14:00 11.2 C 95 % 1020.6 hPa 0.0 l/m 4.8 km/h (1 Bft) SW 0.27 h 121 W/m 10.4 C 11.2 C 8.3 km/h (2 Bft)
24.11.2009 15:00 11.3 C 93 % 1020.6 hPa 0.0 l/m 7.0 km/h (2 Bft) SW 0.62 h 90 W/m 10.2 C 11.3 C 10.8 km/h (2 Bft)
24.11.2009 16:00 11.2 C 86 % 1020.6 hPa 0.2 l/m 6.7 km/h (2 Bft) SW 0.08 h 23 W/m 8.9 C 11.2 C 10.4 km/h (2 Bft)
24.11.2009 17:00 11.1 C 83 % 1020.7 hPa 0.0 l/m 4.8 km/h (1 Bft) S-SW 0.00 h 0 W/m 8.4 C 11.1 C 7.7 km/h (2 Bft)
24.11.2009 18:00 11.1 C 82 % 1021.1 hPa 0.0 l/m 5.4 km/h (1 Bft) S-SW 0.00 h 0 W/m 8.0 C 11.1 C 8.3 km/h (2 Bft)
24.11.2009 19:00 11.6 C 77 % 1021.2 hPa 0.0 l/m 5.6 km/h (1 Bft) W 0.00 h 0 W/m 7.6 C 11.6 C 9.1 km/h (2 Bft)
24.11.2009 20:00 11.1 C 79 % 1020.9 hPa 0.0 l/m 5.8 km/h (2 Bft) W 0.00 h 0 W/m 7.5 C 11.1 C 9.2 km/h (2 Bft)
24.11.2009 21:00 10.3 C 81 % 1020.7 hPa 0.0 l/m 3.3 km/h (1 Bft) S-SW 0.00 h 0 W/m 7.2 C 10.3 C 6.0 km/h (2 Bft)
24.11.2009 22:00 9.3 C 86 % 1020.7 hPa 0.0 l/m 3.8 km/h (1 Bft) S 0.00 h 0 W/m 7.0 C 9.1 C 7.3 km/h (2 Bft)
24.11.2009 23:00 9.1 C 88 % 1020.3 hPa 0.0 l/m 5.4 km/h (1 Bft) S-SO 0.00 h 0 W/m 7.2 C 8.6 C 9.8 km/h (2 Bft)
25.11.2009 00:00 9.0 C 87 % 1019.9 hPa 0.0 l/m 4.6 km/h (1 Bft) S-SO 0.00 h 0 W/m 7.0 C 8.6 C 9.1 km/h (2 Bft)
25.11.2009 01:00 8.3 C 88 % 1019.5 hPa 0.0 l/m 3.2 km/h (1 Bft) S 0.00 h 0 W/m 6.5 C 8.1 C 6.5 km/h (2 Bft)
25.11.2009 02:00 7.6 C 90 % 1018.9 hPa 0.0 l/m 1.3 km/h (1 Bft) O 0.00 h 0 W/m 6.1 C 7.6 C 3.3 km/h (1 Bft)
25.11.2009 03:00 6.8 C 91 % 1018.5 hPa 0.0 l/m 2.8 km/h (1 Bft) S-SO 0.00 h 0 W/m 5.4 C 6.7 C 4.7 km/h (1 Bft)
25.11.2009 04:00 6.4 C 91 % 1017.7 hPa 0.0 l/m 0.8 km/h (0 Bft) S-SO 0.00 h 0 W/m 5.1 C 6.4 C 2.1 km/h (1 Bft)
25.11.2009 05:00 6.2 C 91 % 1017.3 hPa 0.0 l/m 1.7 km/h (1 Bft) O-SO 0.00 h 0 W/m 4.9 C 6.2 C 3.6 km/h (1 Bft)
25.11.2009 06:00 6.3 C 92 % 1016.9 hPa 0.0 l/m 2.3 km/h (1 Bft) S-SO 0.00 h 0 W/m 5.1 C 6.2 C 4.5 km/h (1 Bft)
25.11.2009 07:00 5.8 C 91 % 1016.7 hPa 0.0 l/m 0.9 km/h (0 Bft) N-NW 0.03 h 7 W/m 4.5 C 5.8 C 2.3 km/h (1 Bft)
25.11.2009 08:00 5.2 C 93 % 1017.1 hPa 0.0 l/m 0.8 km/h (0 Bft) O 0.10 h 39 W/m 4.2 C 5.2 C 1.8 km/h (1 Bft)
25.11.2009 09:00 6.7 C 95 % 1016.8 hPa 0.0 l/m 2.7 km/h (1 Bft) S 0.82 h 151 W/m 5.9 C 6.4 C 6.1 km/h (2 Bft)
25.11.2009 10:00 8.1 C 89 % 1016.7 hPa 0.0 l/m 5.7 km/h (1 Bft) S-SW 0.70 h 199 W/m 6.3 C 7.4 C 11.0 km/h (2 Bft)
25.11.2009 11:00 9.6 C 80 % 1015.9 hPa 0.0 l/m 6.0 km/h (2 Bft) S-SO 1.00 h 310 W/m 6.2 C 9.1 C 11.0 km/h (2 Bft)
25.11.2009 12:00 11.2 C 72 % 1014.6 hPa 0.0 l/m 4.5 km/h (1 Bft) S-SO 1.00 h 307 W/m 6.4 C 11.2 C 8.6 km/h (2 Bft)
25.11.2009 13:00 12.4 C 66 % 1013.4 hPa 0.0 l/m 2.6 km/h (1 Bft) S-SW 0.85 h 247 W/m 6.3 C 12.4 C 5.6 km/h (1 Bft)
25.11.2009 14:00 12.4 C 65 % 1012.2 hPa 0.0 l/m 0.3 km/h (0 Bft) SW 0.22 h 135 W/m 6.1 C 12.4 C 1.7 km/h (1 Bft)
25.11.2009 15:00 12.2 C 65 % 1011.7 hPa 0.0 l/m 1.9 km/h (1 Bft) SO 0.42 h 81 W/m 5.9 C 12.2 C 3.9 km/h (1 Bft)
25.11.2009 16:00 10.5 C 72 % 1012.0 hPa 0.0 l/m 1.5 km/h (1 Bft) W-NW 0.00 h 17 W/m 5.6 C 10.5 C 2.8 km/h (1 Bft)
25.11.2009 17:00 8.5 C 78 % 1012.3 hPa 0.0 l/m 3.5 km/h (1 Bft) O-SO 0.00 h 0 W/m 4.9 C 8.2 C 5.0 km/h (1 Bft)
25.11.2009 18:00 8.2 C 78 % 1012.7 hPa 0.0 l/m 3.9 km/h (1 Bft) O-SO 0.00 h 0 W/m 4.6 C 7.7 C 5.0 km/h (1 Bft)
25.11.2009 19:00 6.9 C 83 % 1013.2 hPa 0.0 l/m 2.2 km/h (1 Bft) O 0.00 h 0 W/m 4.2 C 6.7 C 3.7 km/h (1 Bft)
25.11.2009 20:00 5.7 C 86 % 1013.6 hPa 0.0 l/m 0.3 km/h (0 Bft) SO 0.00 h 0 W/m 3.6 C 5.7 C 0.9 km/h (0 Bft)
25.11.2009 21:00 5.2 C 89 % 1013.9 hPa 0.0 l/m 0.8 km/h (0 Bft) SO 0.00 h 0 W/m 3.5 C 5.2 C 1.8 km/h (1 Bft)
25.11.2009 22:00 4.9 C 91 % 1014.1 hPa 0.0 l/m 0.8 km/h (0 Bft) N-NW 0.00 h 0 W/m 3.5 C 4.9 C 2.2 km/h (1 Bft)
25.11.2009 23:00 4.6 C 92 % 1014.4 hPa 0.0 l/m 0.1 km/h (0 Bft) NW 0.00 h 0 W/m 3.4 C 4.6 C 0.7 km/h (0 Bft)
26.11.2009 00:00 4.6 C 93 % 1014.5 hPa 0.0 l/m 0.5 km/h (0 Bft) NW 0.00 h 0 W/m 3.6 C 4.6 C 1.1 km/h (1 Bft)
26.11.2009 01:00 4.8 C 95 % 1014.8 hPa 0.0 l/m 1.7 km/h (1 Bft) O-SO 0.00 h 0 W/m 4.0 C 4.6 C 3.5 km/h (1 Bft)
26.11.2009 02:00 7.3 C 94 % 1015.3 hPa 0.2 l/m 10.8 km/h (2 Bft) W-NW 0.00 h 0 W/m 6.3 C 5.4 C 16.3 km/h (3 Bft)
26.11.2009 03:00 9.1 C 84 % 1015.7 hPa 0.2 l/m 12.6 km/h (3 Bft) W 0.00 h 0 W/m 6.6 C 7.2 C 18.9 km/h (3 Bft)
26.11.2009 04:00 9.1 C 81 % 1015.8 hPa 0.0 l/m 5.6 km/h (1 Bft) W 0.00 h 0 W/m 6.1 C 8.5 C 9.0 km/h (2 Bft)
26.11.2009 05:00 9.0 C 80 % 1015.9 hPa 0.0 l/m 0.9 km/h (0 Bft) SW 0.00 h 0 W/m 5.9 C 9.0 C 2.5 km/h (1 Bft)
26.11.2009 06:00 8.6 C 84 % 1016.0 hPa 0.0 l/m 3.6 km/h (1 Bft) W-SW 0.00 h 0 W/m 6.0 C 8.3 C 6.2 km/h (2 Bft)
26.11.2009 07:00 8.5 C 85 % 1016.3 hPa 0.0 l/m 3.8 km/h (1 Bft) SW 0.00 h 0 W/m 6.1 C 8.2 C 6.3 km/h (2 Bft)
26.11.2009 08:00 8.6 C 83 % 1016.8 hPa 0.0 l/m 6.8 km/h (2 Bft) W 0.00 h 15 W/m 5.9 C 7.7 C 10.2 km/h (2 Bft)
26.11.2009 09:00 8.7 C 82 % 1017.0 hPa 0.0 l/m 5.7 km/h (1 Bft) W-NW 0.00 h 20 W/m 5.8 C 8.1 C 9.0 km/h (2 Bft)
26.11.2009 10:00 8.8 C 82 % 1017.4 hPa 0.0 l/m 3.6 km/h (1 Bft) W-SW 0.00 h 29 W/m 5.9 C 8.6 C 5.9 km/h (2 Bft)
26.11.2009 11:00 9.2 C 80 % 1017.4 hPa 0.2 l/m 4.0 km/h (1 Bft) W 0.03 h 104 W/m 5.9 C 8.9 C 6.8 km/h (2 Bft)
26.11.2009 12:00 9.7 C 77 % 1016.9 hPa 0.0 l/m 3.5 km/h (1 Bft) S-SO 0.22 h 153 W/m 5.8 C 9.6 C 6.4 km/h (2 Bft)
26.11.2009 13:00 10.4 C 67 % 1016.2 hPa 0.0 l/m 5.5 km/h (1 Bft) SW 0.32 h 156 W/m 4.6 C 10.4 C 8.6 km/h (2 Bft)
26.11.2009 14:00 10.6 C 68 % 1015.4 hPa 0.0 l/m 2.5 km/h (1 Bft) S-SW 0.27 h 101 W/m 4.9 C 10.6 C 5.2 km/h (1 Bft)
26.11.2009 15:00 10.9 C 72 % 1015.2 hPa 0.0 l/m 3.3 km/h (1 Bft) S-SO 0.57 h 78 W/m 6.1 C 10.9 C 5.9 km/h (2 Bft)
26.11.2009 16:00 9.8 C 77 % 1015.4 hPa 0.0 l/m 1.5 km/h (1 Bft) S-SO 0.05 h 14 W/m 6.0 C 9.8 C 3.1 km/h (1 Bft)
26.11.2009 17:00 7.8 C 86 % 1015.5 hPa 0.0 l/m 2.9 km/h (1 Bft) S-SO 0.00 h 0 W/m 5.6 C 7.6 C 4.6 km/h (1 Bft)
26.11.2009 18:00 6.9 C 89 % 1015.8 hPa 0.0 l/m 2.9 km/h (1 Bft) O-SO 0.00 h 0 W/m 5.3 C 6.6 C 4.4 km/h (1 Bft)
26.11.2009 19:00 6.0 C 90 % 1015.8 hPa 0.0 l/m 2.4 km/h (1 Bft) O-SO 0.00 h 0 W/m 4.4 C 5.9 C 3.9 km/h (1 Bft)
26.11.2009 20:00 4.7 C 90 % 1015.8 hPa 0.0 l/m 1.9 km/h (1 Bft) SO 0.00 h 0 W/m 3.1 C 4.5 C 2.9 km/h (1 Bft)
26.11.2009 21:00 4.1 C 91 % 1015.7 hPa 0.0 l/m 0.8 km/h (0 Bft) O-SO 0.00 h 0 W/m 2.8 C 4.0 C 1.1 km/h (1 Bft)
26.11.2009 22:00 3.1 C 92 % 1015.3 hPa 0.0 l/m 0.7 km/h (0 Bft) O-SO 0.00 h 0 W/m 1.9 C 3.0 C 1.3 km/h (1 Bft)
26.11.2009 23:00 3.2 C 94 % 1014.9 hPa 0.0 l/m 0.1 km/h (0 Bft) O-SO 0.00 h 0 W/m 2.3 C 3.2 C 0.3 km/h (0 Bft)
27.11.2009 00:00 2.8 C 95 % 1014.3 hPa 0.0 l/m 1.2 km/h (1 Bft) O-SO 0.00 h 0 W/m 2.0 C 2.7 C 2.2 km/h (1 Bft)
27.11.2009 01:00 2.1 C 95 % 1013.7 hPa 0.0 l/m 0.8 km/h (0 Bft) O-SO 0.00 h 0 W/m 1.5 C 2.1 C 1.7 km/h (1 Bft)
27.11.2009 02:00 2.3 C 96 % 1013.2 hPa 0.0 l/m 0.0 km/h (0 Bft) N 0.00 h 0 W/m 1.7 C 2.3 C 0.2 km/h (0 Bft)
27.11.2009 03:00 1.8 C 96 % 1012.8 hPa 0.0 l/m 0.3 km/h (0 Bft) NO 0.00 h 0 W/m 1.2 C 1.8 C 1.0 km/h (0 Bft)
27.11.2009 04:00 1.7 C 97 % 1012.4 hPa 0.0 l/m 1.0 km/h (0 Bft) NO 0.00 h 0 W/m 1.2 C 1.7 C 2.0 km/h (1 Bft)
27.11.2009 05:00 1.2 C 97 % 1012.2 hPa 0.0 l/m 1.4 km/h (1 Bft) NO 0.00 h 0 W/m 0.7 C 1.2 C 2.8 km/h (1 Bft)
27.11.2009 06:00 1.4 C 97 % 1012.0 hPa 0.2 l/m 0.7 km/h (0 Bft) N-NO 0.00 h 0 W/m 1.0 C 1.4 C 2.3 km/h (1 Bft)
27.11.2009 07:00 1.1 C 97 % 1012.2 hPa 0.0 l/m 0.3 km/h (0 Bft) NO 0.00 h 7 W/m 0.7 C 1.1 C 1.3 km/h (1 Bft)
27.11.2009 08:00 1.4 C 98 % 1012.2 hPa 0.0 l/m 1.2 km/h (1 Bft) NO 0.55 h 44 W/m 1.1 C 1.3 C 3.2 km/h (1 Bft)
27.11.2009 09:00 3.0 C 98 % 1012.4 hPa 0.0 l/m 1.7 km/h (1 Bft) NW 0.00 h 57 W/m 2.7 C 2.9 C 3.7 km/h (1 Bft)
27.11.2009 10:00 3.6 C 98 % 1012.7 hPa 0.0 l/m 1.6 km/h (1 Bft) N-NW 0.00 h 65 W/m 3.3 C 3.5 C 3.6 km/h (1 Bft)
27.11.2009 11:00 5.3 C 98 % 1012.5 hPa 0.0 l/m 6.0 km/h (2 Bft) W-SW 0.00 h 71 W/m 5.1 C 4.3 C 10.5 km/h (2 Bft)
27.11.2009 12:00 9.7 C 74 % 1011.6 hPa 0.0 l/m 5.2 km/h (1 Bft) N-NW 0.00 h 83 W/m 5.3 C 9.4 C 8.6 km/h (2 Bft)
27.11.2009 13:00 8.8 C 77 % 1011.8 hPa 0.8 l/m 5.2 km/h (1 Bft) W 0.00 h 39 W/m 5.0 C 8.2 C 8.8 km/h (2 Bft)
27.11.2009 14:00 7.8 C 87 % 1012.3 hPa 1.4 l/m 8.1 km/h (2 Bft) W 0.00 h 32 W/m 5.8 C 6.5 C 12.2 km/h (2 Bft)
27.11.2009 15:00 7.2 C 90 % 1012.8 hPa 1.0 l/m 8.8 km/h (2 Bft) W 0.00 h 18 W/m 5.6 C 5.6 C 14.1 km/h (3 Bft)
27.11.2009 16:00 6.3 C 89 % 1013.1 hPa 0.4 l/m 6.5 km/h (2 Bft) W 0.00 h 6 W/m 4.7 C 5.2 C 9.7 km/h (2 Bft)
27.11.2009 17:00 6.4 C 88 % 1013.2 hPa 0.0 l/m 5.0 km/h (1 Bft) W-SW 0.00 h 0 W/m 4.6 C 5.7 C 7.9 km/h (2 Bft)
27.11.2009 18:00 6.3 C 88 % 1013.4 hPa 0.0 l/m 3.0 km/h (1 Bft) S-SO 0.00 h 0 W/m 4.5 C 6.0 C 5.4 km/h (1 Bft)
27.11.2009 19:00 5.9 C 89 % 1013.3 hPa 0.0 l/m 2.1 km/h (1 Bft) S-SO 0.00 h 0 W/m 4.3 C 5.7 C 3.9 km/h (1 Bft)
27.11.2009 20:00 5.3 C 91 % 1013.2 hPa 0.0 l/m 2.3 km/h (1 Bft) S-SO 0.00 h 0 W/m 4.0 C 5.2 C 4.0 km/h (1 Bft)
27.11.2009 21:00 4.6 C 94 % 1013.6 hPa 0.0 l/m 1.7 km/h (1 Bft) S-SO 0.00 h 0 W/m 3.7 C 4.6 C 2.9 km/h (1 Bft)
27.11.2009 22:00 3.8 C 94 % 1013.6 hPa 0.0 l/m 0.8 km/h (0 Bft) S-SO 0.00 h 0 W/m 3.0 C 3.8 C 1.5 km/h (1 Bft)
27.11.2009 23:00 3.3 C 95 % 1013.4 hPa 0.0 l/m 0.9 km/h (0 Bft) O 0.00 h 0 W/m 2.6 C 3.3 C 1.5 km/h (1 Bft)
28.11.2009 00:00 2.8 C 96 % 1013.4 hPa 0.0 l/m 1.6 km/h (1 Bft) O-SO 0.00 h 0 W/m 2.2 C 2.6 C 2.9 km/h (1 Bft)
28.11.2009 01:00 3.9 C 97 % 1013.3 hPa 0.0 l/m 1.8 km/h (1 Bft) O-SO 0.00 h 0 W/m 3.4 C 3.8 C 3.2 km/h (1 Bft)
28.11.2009 02:00 4.4 C 97 % 1013.2 hPa 0.0 l/m 1.4 km/h (1 Bft) SO 0.00 h 0 W/m 3.9 C 4.3 C 2.8 km/h (1 Bft)
28.11.2009 03:00 4.2 C 97 % 1013.3 hPa 0.2 l/m 1.2 km/h (1 Bft) S-SO 0.00 h 0 W/m 3.8 C 4.2 C 2.7 km/h (1 Bft)
28.11.2009 04:00 4.3 C 97 % 1013.1 hPa 0.0 l/m 0.5 km/h (0 Bft) N 0.00 h 0 W/m 3.9 C 4.3 C 1.4 km/h (1 Bft)
28.11.2009 05:00 4.4 C 98 % 1013.3 hPa 0.0 l/m 1.2 km/h (1 Bft) SO 0.00 h 0 W/m 4.1 C 4.3 C 2.5 km/h (1 Bft)
28.11.2009 06:00 4.3 C 98 % 1013.4 hPa 0.0 l/m 2.7 km/h (1 Bft) S-SO 0.00 h 0 W/m 4.0 C 4.0 C 4.7 km/h (1 Bft)
28.11.2009 07:00 4.6 C 97 % 1013.4 hPa 0.0 l/m 2.7 km/h (1 Bft) S-SO 0.00 h 7 W/m 4.2 C 4.4 C 5.2 km/h (1 Bft)
28.11.2009 08:00 4.4 C 96 % 1013.7 hPa 0.0 l/m 3.9 km/h (1 Bft) S-SO 0.05 h 32 W/m 3.9 C 3.9 C 6.7 km/h (2 Bft)
28.11.2009 09:00 5.5 C 95 % 1013.6 hPa 0.0 l/m 4.5 km/h (1 Bft) S-SO 0.53 h 118 W/m 4.7 C 4.8 C 9.0 km/h (2 Bft)
28.11.2009 10:00 7.6 C 81 % 1013.3 hPa 0.0 l/m 7.5 km/h (2 Bft) S 0.47 h 146 W/m 4.5 C 6.3 C 14.1 km/h (3 Bft)
28.11.2009 11:00 9.5 C 68 % 1012.6 hPa 0.0 l/m 7.5 km/h (2 Bft) SW 0.98 h 281 W/m 3.8 C 8.8 C 12.5 km/h (3 Bft)
28.11.2009 12:00 11.1 C 57 % 1011.7 hPa 0.0 l/m 9.5 km/h (2 Bft) SW 1.00 h 293 W/m 2.9 C 11.1 C 15.3 km/h (3 Bft)
28.11.2009 13:00 12.1 C 53 % 1010.8 hPa 0.0 l/m 8.6 km/h (2 Bft) SW 1.00 h 292 W/m 2.8 C 12.1 C 13.6 km/h (3 Bft)
28.11.2009 14:00 12.4 C 47 % 1010.4 hPa 0.0 l/m 14.5 km/h (3 Bft) W-SW 0.97 h 181 W/m 1.5 C 12.4 C 22.7 km/h (4 Bft)
28.11.2009 15:00 12.5 C 45 % 1009.9 hPa 0.0 l/m 9.4 km/h (2 Bft) SW 0.57 h 89 W/m 1.0 C 12.5 C 15.0 km/h (3 Bft)
28.11.2009 16:00 11.5 C 47 % 1009.6 hPa 0.0 l/m 7.2 km/h (2 Bft) SW 0.02 h 18 W/m 0.6 C 11.5 C 12.2 km/h (2 Bft)
28.11.2009 17:00 10.0 C 56 % 1009.6 hPa 0.0 l/m 8.6 km/h (2 Bft) S-SO 0.00 h 0 W/m 1.6 C 9.6 C 15.4 km/h (3 Bft)
28.11.2009 18:00 9.1 C 60 % 1009.4 hPa 0.0 l/m 4.9 km/h (1 Bft) SW 0.00 h 0 W/m 1.7 C 8.7 C 8.8 km/h (2 Bft)
28.11.2009 19:00 8.0 C 63 % 1009.4 hPa 0.0 l/m 4.0 km/h (1 Bft) SO 0.00 h 0 W/m 1.5 C 7.7 C 6.6 km/h (2 Bft)
28.11.2009 20:00 6.9 C 67 % 1009.4 hPa 0.0 l/m 1.6 km/h (1 Bft) O 0.00 h 0 W/m 1.1 C 6.8 C 3.1 km/h (1 Bft)
28.11.2009 21:00 5.3 C 75 % 1009.1 hPa 0.0 l/m 1.2 km/h (1 Bft) O-SO 0.00 h 0 W/m 1.3 C 5.2 C 1.9 km/h (1 Bft)
28.11.2009 22:00 4.1 C 79 % 1008.7 hPa 0.0 l/m 0.3 km/h (0 Bft) O-SO 0.00 h 0 W/m 0.8 C 4.1 C 0.9 km/h (0 Bft)
28.11.2009 23:00 3.2 C 83 % 1008.4 hPa 0.0 l/m 0.1 km/h (0 Bft) O-SO 0.00 h 0 W/m 0.6 C 3.2 C 0.7 km/h (0 Bft)
29.11.2009 00:00 2.3 C 85 % 1007.8 hPa 0.0 l/m 0.0 km/h (0 Bft) O-SO 0.00 h 0 W/m -0.0 C 2.3 C 0.4 km/h (0 Bft)
29.11.2009 01:00 1.5 C 88 % 1007.2 hPa 0.0 l/m 0.5 km/h (0 Bft) O-SO 0.00 h 0 W/m -0.4 C 1.5 C 1.2 km/h (1 Bft)
29.11.2009 02:00 1.2 C 89 % 1006.6 hPa 0.0 l/m 1.1 km/h (1 Bft) O-SO 0.00 h 0 W/m -0.4 C 1.0 C 2.2 km/h (1 Bft)
29.11.2009 03:00 0.6 C 91 % 1006.3 hPa 0.0 l/m 1.1 km/h (1 Bft) O-SO 0.00 h 0 W/m -0.7 C 0.6 C 2.1 km/h (1 Bft)
29.11.2009 04:00 0.2 C 92 % 1006.2 hPa 0.0 l/m 1.1 km/h (1 Bft) O-SO 0.00 h 0 W/m -1.0 C 0.2 C 2.1 km/h (1 Bft)
29.11.2009 05:00 0.1 C 93 % 1005.9 hPa 0.0 l/m 0.4 km/h (0 Bft) O-SO 0.00 h 0 W/m -0.8 C 0.1 C 1.1 km/h (0 Bft)
29.11.2009 06:00 0.2 C 94 % 1005.5 hPa 0.0 l/m 0.5 km/h (0 Bft) O-SO 0.00 h 0 W/m -0.7 C 0.2 C 0.9 km/h (0 Bft)
29.11.2009 07:00 0.1 C 94 % 1005.6 hPa 0.0 l/m 1.1 km/h (1 Bft) O-SO 0.00 h 8 W/m -0.7 C 0.1 C 2.1 km/h (1 Bft)
29.11.2009 08:00 0.1 C 95 % 1005.6 hPa 0.0 l/m 0.1 km/h (0 Bft) O-SO 0.23 h 33 W/m -0.6 C 0.1 C 0.6 km/h (0 Bft)
29.11.2009 09:00 0.6 C 95 % 1005.1 hPa 0.2 l/m 0.5 km/h (0 Bft) O-SO 0.00 h 64 W/m -0.1 C 0.6 C 1.3 km/h (1 Bft)
29.11.2009 10:00 1.2 C 96 % 1004.8 hPa 0.0 l/m 0.5 km/h (0 Bft) O-SO 0.00 h 106 W/m 0.6 C 1.2 C 1.1 km/h (0 Bft)
29.11.2009 11:00 2.4 C 96 % 1004.4 hPa 0.0 l/m 0.4 km/h (0 Bft) W-NW 0.00 h 134 W/m 1.8 C 2.4 C 1.4 km/h (1 Bft)
29.11.2009 12:00 3.3 C 95 % 1003.2 hPa 0.0 l/m 0.4 km/h (0 Bft) W-NW 0.00 h 116 W/m 2.5 C 3.3 C 1.2 km/h (1 Bft)
29.11.2009 13:00 4.1 C 92 % 1001.8 hPa 0.0 l/m 0.4 km/h (0 Bft) W-NW 0.00 h 115 W/m 2.9 C 4.1 C 1.4 km/h (1 Bft)
29.11.2009 14:00 4.6 C 88 % 1001.0 hPa 0.0 l/m 0.6 km/h (0 Bft) W-NW 0.00 h 88 W/m 2.9 C 4.6 C 1.6 km/h (1 Bft)
29.11.2009 15:00 4.9 C 85 % 1000.4 hPa 0.0 l/m 0.4 km/h (0 Bft) N 0.00 h 27 W/m 2.6 C 4.9 C 1.2 km/h (1 Bft)
29.11.2009 16:00 4.8 C 86 % 999.6 hPa 0.0 l/m 0.9 km/h (0 Bft) S-SW 0.00 h 6 W/m 2.6 C 4.7 C 2.1 km/h (1 Bft)
29.11.2009 17:00 4.4 C 86 % 998.7 hPa 0.0 l/m 0.4 km/h (0 Bft) O-SO 0.00 h 0 W/m 2.3 C 4.4 C 1.1 km/h (0 Bft)
29.11.2009 18:00 4.0 C 88 % 998.1 hPa 0.0 l/m 0.5 km/h (0 Bft) N-NW 0.00 h 0 W/m 2.1 C 4.0 C 1.7 km/h (1 Bft)
29.11.2009 19:00 3.5 C 88 % 998.3 hPa 0.0 l/m 3.7 km/h (1 Bft) O-SO 0.00 h 0 W/m 1.8 C 2.8 C 5.0 km/h (1 Bft)
29.11.2009 20:00 3.0 C 89 % 997.8 hPa 0.0 l/m 1.3 km/h (1 Bft) O-SO 0.00 h 0 W/m 1.3 C 2.9 C 2.3 km/h (1 Bft)
29.11.2009 21:00 2.6 C 88 % 997.8 hPa 0.0 l/m 3.0 km/h (1 Bft) O 0.00 h 0 W/m 0.9 C 2.0 C 4.2 km/h (1 Bft)
29.11.2009 22:00 2.1 C 90 % 997.5 hPa 0.0 l/m 1.4 km/h (1 Bft) O-SO 0.00 h 0 W/m 0.6 C 2.0 C 2.6 km/h (1 Bft)
29.11.2009 23:00 2.1 C 92 % 997.8 hPa 0.0 l/m 3.2 km/h (1 Bft) O-SO 0.00 h 0 W/m 0.9 C 1.5 C 4.8 km/h (1 Bft)
Min-Datum _ 29.11.09 28.11.09 29.11.09 - 23.11.09 - - - 29.11.09 29.11.09 23.11.09
_ Min-Zeit 07:35 16:26 22:45 - 00:00 - - - 04:05 04:46 00:00
Minimum _ -0.1 C 42 % 997.2 hPa - 0.0 km/h (0 Bft) - - - -1.1 C -1.5 C 0.0 km/h (0 Bft)
Max-Datum _ 23.11.09 27.11.09 24.11.09 24.11.09 23.11.09 - 23.11.09 23.11.09 24.11.09 23.11.09 23.11.09
_ Max-Zeit 13:09 11:23 18:30 01:00 02:42 - 08:09 12:50 14:42 13:09 02:42
Maximum _ 13.6 C 99 % 1021.3 hPa 4.4 l/m 41.7 km/h
W (6 Bft)
- 0.02 h 473 W/m 10.8 C 13.6 C 64.3 km/h
W-SW (8 Bft)
Durchschnitt _ 7.1 C 84 % 1013.5 hPa #35.2 l/m 4.6 km/h (1 Bft) SW #14:35 h 87 W/m 4.4 C 6.8 C 7.7 km/h (2 Bft)
© Kaiko 2009